sensor_id;sensor_type;location;lat;lon;timestamp;P1;durP1;ratioP1;P2;durP2;ratioP2
62523;SDS011;53689;56.878;60.672;2023-02-28T00:00:38;9.85;;;7.32;;
62523;SDS011;53689;56.878;60.672;2023-02-28T00:03:06;12.07;;;8.55;;
62523;SDS011;53689;56.878;60.672;2023-02-28T00:05:34;11.20;;;8.13;;
62523;SDS011;53689;56.878;60.672;2023-02-28T00:08:02;11.30;;;7.95;;
62523;SDS011;53689;56.878;60.672;2023-02-28T00:10:31;10.52;;;8.02;;
62523;SDS011;53689;56.878;60.672;2023-02-28T00:13:01;11.27;;;7.63;;
62523;SDS011;53689;56.878;60.672;2023-02-28T00:15:31;11.15;;;7.78;;
62523;SDS011;53689;56.878;60.672;2023-02-28T00:17:59;11.15;;;7.97;;
62523;SDS011;53689;56.878;60.672;2023-02-28T00:20:27;12.20;;;9.02;;
62523;SDS011;53689;56.878;60.672;2023-02-28T00:22:55;10.63;;;7.78;;
62523;SDS011;53689;56.878;60.672;2023-02-28T00:25:24;11.85;;;8.43;;
62523;SDS011;53689;56.878;60.672;2023-02-28T00:27:52;9.85;;;7.50;;
62523;SDS011;53689;56.878;60.672;2023-02-28T00:30:22;9.73;;;7.30;;
62523;SDS011;53689;56.878;60.672;2023-02-28T00:32:50;11.07;;;7.70;;
62523;SDS011;53689;56.878;60.672;2023-02-28T00:35:18;10.60;;;8.18;;
62523;SDS011;53689;56.878;60.672;2023-02-28T00:37:46;10.35;;;7.68;;
62523;SDS011;53689;56.878;60.672;2023-02-28T00:40:15;11.50;;;8.18;;
62523;SDS011;53689;56.878;60.672;2023-02-28T00:42:43;10.25;;;8.02;;
62523;SDS011;53689;56.878;60.672;2023-02-28T00:45:10;10.50;;;7.60;;
62523;SDS011;53689;56.878;60.672;2023-02-28T00:47:39;11.38;;;7.68;;
62523;SDS011;53689;56.878;60.672;2023-02-28T00:50:08;10.23;;;7.68;;
62523;SDS011;53689;56.878;60.672;2023-02-28T00:52:36;10.70;;;7.45;;
62523;SDS011;53689;56.878;60.672;2023-02-28T00:55:04;9.77;;;7.05;;
62523;SDS011;53689;56.878;60.672;2023-02-28T00:57:32;10.05;;;7.55;;
62523;SDS011;53689;56.878;60.672;2023-02-28T01:00:00;12.15;;;8.73;;
62523;SDS011;53689;56.878;60.672;2023-02-28T01:02:27;10.88;;;7.55;;
62523;SDS011;53689;56.878;60.672;2023-02-28T01:04:56;9.90;;;7.32;;
62523;SDS011;53689;56.878;60.672;2023-02-28T01:07:24;11.75;;;8.35;;
62523;SDS011;53689;56.878;60.672;2023-02-28T01:09:52;9.63;;;7.38;;
62523;SDS011;53689;56.878;60.672;2023-02-28T01:12:20;9.95;;;6.95;;
62523;SDS011;53689;56.878;60.672;2023-02-28T01:14:48;9.98;;;8.00;;
62523;SDS011;53689;56.878;60.672;2023-02-28T01:17:16;10.13;;;7.32;;
62523;SDS011;53689;56.878;60.672;2023-02-28T01:19:44;10.43;;;7.47;;
62523;SDS011;53689;56.878;60.672;2023-02-28T01:22:13;10.23;;;7.43;;
62523;SDS011;53689;56.878;60.672;2023-02-28T01:24:41;8.88;;;7.20;;
62523;SDS011;53689;56.878;60.672;2023-02-28T01:27:11;9.40;;;7.47;;
62523;SDS011;53689;56.878;60.672;2023-02-28T01:29:39;8.93;;;7.70;;
62523;SDS011;53689;56.878;60.672;2023-02-28T01:32:08;9.15;;;7.00;;
62523;SDS011;53689;56.878;60.672;2023-02-28T01:34:36;9.35;;;7.72;;
62523;SDS011;53689;56.878;60.672;2023-02-28T01:37:03;9.15;;;7.55;;
62523;SDS011;53689;56.878;60.672;2023-02-28T01:39:33;9.85;;;7.80;;
62523;SDS011;53689;56.878;60.672;2023-02-28T01:42:02;9.00;;;6.97;;
62523;SDS011;53689;56.878;60.672;2023-02-28T01:47:28;10.20;;;7.80;;
62523;SDS011;53689;56.878;60.672;2023-02-28T01:49:58;11.45;;;7.97;;
62523;SDS011;53689;56.878;60.672;2023-02-28T01:52:29;10.23;;;7.13;;
62523;SDS011;53689;56.878;60.672;2023-02-28T01:55:00;8.65;;;6.78;;
62523;SDS011;53689;56.878;60.672;2023-02-28T01:57:32;10.15;;;7.35;;
62523;SDS011;53689;56.878;60.672;2023-02-28T02:00:03;10.93;;;7.20;;
62523;SDS011;53689;56.878;60.672;2023-02-28T02:02:46;10.60;;;7.45;;
62523;SDS011;53689;56.878;60.672;2023-02-28T02:05:17;10.75;;;8.40;;
62523;SDS011;53689;56.878;60.672;2023-02-28T02:10:17;10.13;;;7.95;;
62523;SDS011;53689;56.878;60.672;2023-02-28T02:15:36;11.25;;;8.02;;
62523;SDS011;53689;56.878;60.672;2023-02-28T02:18:11;10.57;;;7.95;;
62523;SDS011;53689;56.878;60.672;2023-02-28T02:21:03;10.48;;;7.90;;
62523;SDS011;53689;56.878;60.672;2023-02-28T02:27:24;10.70;;;8.52;;
62523;SDS011;53689;56.878;60.672;2023-02-28T02:30:10;9.32;;;7.38;;
62523;SDS011;53689;56.878;60.672;2023-02-28T02:33:11;9.45;;;7.93;;
62523;SDS011;53689;56.878;60.672;2023-02-28T02:35:55;9.02;;;7.43;;
62523;SDS011;53689;56.878;60.672;2023-02-28T02:38:31;9.68;;;7.57;;
62523;SDS011;53689;56.878;60.672;2023-02-28T02:41:08;10.63;;;7.43;;
62523;SDS011;53689;56.878;60.672;2023-02-28T02:43:43;40.13;;;34.72;;
62523;SDS011;53689;56.878;60.672;2023-02-28T02:46:17;10.88;;;9.63;;
62523;SDS011;53689;56.878;60.672;2023-02-28T02:48:47;8.70;;;7.32;;
62523;SDS011;53689;56.878;60.672;2023-02-28T02:51:20;9.68;;;7.20;;
62523;SDS011;53689;56.878;60.672;2023-02-28T02:53:52;17.00;;;13.10;;
62523;SDS011;53689;56.878;60.672;2023-02-28T02:56:26;13.10;;;9.50;;
62523;SDS011;53689;56.878;60.672;2023-02-28T02:58:57;11.63;;;8.73;;
62523;SDS011;53689;56.878;60.672;2023-02-28T03:01:30;11.60;;;9.15;;
62523;SDS011;53689;56.878;60.672;2023-02-28T03:06:29;9.52;;;7.03;;
62523;SDS011;53689;56.878;60.672;2023-02-28T03:08:57;8.95;;;7.22;;
62523;SDS011;53689;56.878;60.672;2023-02-28T03:11:26;9.88;;;6.93;;
62523;SDS011;53689;56.878;60.672;2023-02-28T03:14:09;12.30;;;7.68;;
62523;SDS011;53689;56.878;60.672;2023-02-28T03:19:40;10.82;;;8.07;;
62523;SDS011;53689;56.878;60.672;2023-02-28T03:22:22;10.20;;;7.78;;
62523;SDS011;53689;56.878;60.672;2023-02-28T03:25:13;12.70;;;8.80;;
62523;SDS011;53689;56.878;60.672;2023-02-28T03:27:53;11.15;;;8.63;;
62523;SDS011;53689;56.878;60.672;2023-02-28T03:30:27;12.77;;;8.82;;
62523;SDS011;53689;56.878;60.672;2023-02-28T03:33:02;11.88;;;8.82;;
62523;SDS011;53689;56.878;60.672;2023-02-28T03:35:36;10.65;;;8.70;;
62523;SDS011;53689;56.878;60.672;2023-02-28T03:38:09;11.63;;;8.00;;
62523;SDS011;53689;56.878;60.672;2023-02-28T03:40:43;11.90;;;8.80;;
62523;SDS011;53689;56.878;60.672;2023-02-28T03:43:18;13.52;;;8.90;;
62523;SDS011;53689;56.878;60.672;2023-02-28T03:45:51;12.30;;;8.80;;
62523;SDS011;53689;56.878;60.672;2023-02-28T03:48:22;13.23;;;9.65;;
62523;SDS011;53689;56.878;60.672;2023-02-28T03:50:55;12.23;;;9.27;;
62523;SDS011;53689;56.878;60.672;2023-02-28T03:53:29;12.07;;;9.27;;
62523;SDS011;53689;56.878;60.672;2023-02-28T03:56:01;12.73;;;9.82;;
62523;SDS011;53689;56.878;60.672;2023-02-28T03:58:37;26.52;;;10.38;;
62523;SDS011;53689;56.878;60.672;2023-02-28T04:01:11;93.63;;;13.48;;
62523;SDS011;53689;56.878;60.672;2023-02-28T04:03:45;119.13;;;16.63;;
62523;SDS011;53689;56.878;60.672;2023-02-28T04:06:15;226.40;;;21.33;;
62523;SDS011;53689;56.878;60.672;2023-02-28T04:08:46;169.68;;;20.48;;
62523;SDS011;53689;56.878;60.672;2023-02-28T04:11:18;185.52;;;19.30;;
62523;SDS011;53689;56.878;60.672;2023-02-28T04:13:49;126.97;;;18.88;;
62523;SDS011;53689;56.878;60.672;2023-02-28T04:16:17;45.45;;;12.00;;
62523;SDS011;53689;56.878;60.672;2023-02-28T04:19:02;67.35;;;13.45;;
62523;SDS011;53689;56.878;60.672;2023-02-28T04:24:01;29.27;;;12.07;;
62523;SDS011;53689;56.878;60.672;2023-02-28T04:26:30;23.23;;;10.85;;
62523;SDS011;53689;56.878;60.672;2023-02-28T04:28:59;19.30;;;10.88;;
62523;SDS011;53689;56.878;60.672;2023-02-28T04:31:27;23.60;;;11.27;;
62523;SDS011;53689;56.878;60.672;2023-02-28T04:33:56;21.25;;;11.20;;
62523;SDS011;53689;56.878;60.672;2023-02-28T04:36:24;18.42;;;11.45;;
62523;SDS011;53689;56.878;60.672;2023-02-28T04:38:54;18.98;;;9.60;;
62523;SDS011;53689;56.878;60.672;2023-02-28T04:41:24;18.38;;;10.48;;
62523;SDS011;53689;56.878;60.672;2023-02-28T04:43:53;15.98;;;9.63;;
62523;SDS011;53689;56.878;60.672;2023-02-28T04:46:21;19.83;;;10.35;;
62523;SDS011;53689;56.878;60.672;2023-02-28T04:48:49;18.95;;;11.35;;
62523;SDS011;53689;56.878;60.672;2023-02-28T04:51:17;25.95;;;12.23;;
62523;SDS011;53689;56.878;60.672;2023-02-28T04:53:45;30.73;;;13.05;;
62523;SDS011;53689;56.878;60.672;2023-02-28T04:56:14;29.27;;;13.02;;
62523;SDS011;53689;56.878;60.672;2023-02-28T04:58:44;35.13;;;14.13;;
62523;SDS011;53689;56.878;60.672;2023-02-28T05:01:16;53.55;;;14.80;;
62523;SDS011;53689;56.878;60.672;2023-02-28T05:03:48;58.67;;;16.20;;
62523;SDS011;53689;56.878;60.672;2023-02-28T05:06:16;62.45;;;14.93;;
62523;SDS011;53689;56.878;60.672;2023-02-28T05:08:45;70.80;;;15.52;;
62523;SDS011;53689;56.878;60.672;2023-02-28T05:11:14;70.15;;;34.28;;
62523;SDS011;53689;56.878;60.672;2023-02-28T05:13:45;67.93;;;18.50;;
62523;SDS011;53689;56.878;60.672;2023-02-28T05:16:15;51.22;;;16.17;;
62523;SDS011;53689;56.878;60.672;2023-02-28T05:18:43;74.45;;;18.80;;
62523;SDS011;53689;56.878;60.672;2023-02-28T05:21:22;83.13;;;19.83;;
62523;SDS011;53689;56.878;60.672;2023-02-28T05:23:52;61.53;;;19.38;;
62523;SDS011;53689;56.878;60.672;2023-02-28T05:26:21;59.90;;;18.53;;
62523;SDS011;53689;56.878;60.672;2023-02-28T05:28:50;75.40;;;23.15;;
62523;SDS011;53689;56.878;60.672;2023-02-28T05:33:46;105.75;;;30.13;;
62523;SDS011;53689;56.878;60.672;2023-02-28T05:36:14;80.97;;;25.27;;
62523;SDS011;53689;56.878;60.672;2023-02-28T05:38:42;95.63;;;28.13;;
62523;SDS011;53689;56.878;60.672;2023-02-28T05:41:10;64.68;;;23.00;;
62523;SDS011;53689;56.878;60.672;2023-02-28T05:43:38;74.25;;;22.77;;
62523;SDS011;53689;56.878;60.672;2023-02-28T05:46:08;66.80;;;21.65;;
62523;SDS011;53689;56.878;60.672;2023-02-28T05:48:38;64.55;;;22.08;;
62523;SDS011;53689;56.878;60.672;2023-02-28T05:51:07;69.65;;;22.35;;
62523;SDS011;53689;56.878;60.672;2023-02-28T05:53:35;68.20;;;23.57;;
62523;SDS011;53689;56.878;60.672;2023-02-28T05:56:03;72.63;;;23.00;;
62523;SDS011;53689;56.878;60.672;2023-02-28T05:58:31;55.30;;;21.30;;
62523;SDS011;53689;56.878;60.672;2023-02-28T06:00:59;63.03;;;23.40;;
62523;SDS011;53689;56.878;60.672;2023-02-28T06:03:29;61.87;;;24.87;;
62523;SDS011;53689;56.878;60.672;2023-02-28T06:05:57;68.65;;;24.67;;
62523;SDS011;53689;56.878;60.672;2023-02-28T06:08:24;62.50;;;26.60;;
62523;SDS011;53689;56.878;60.672;2023-02-28T06:10:52;63.15;;;26.52;;
62523;SDS011;53689;56.878;60.672;2023-02-28T06:13:20;55.20;;;23.45;;
62523;SDS011;53689;56.878;60.672;2023-02-28T06:15:48;57.63;;;25.27;;
62523;SDS011;53689;56.878;60.672;2023-02-28T06:18:15;50.40;;;22.25;;
62523;SDS011;53689;56.878;60.672;2023-02-28T06:20:44;65.32;;;24.90;;
62523;SDS011;53689;56.878;60.672;2023-02-28T06:23:19;50.10;;;22.33;;
62523;SDS011;53689;56.878;60.672;2023-02-28T06:25:47;53.90;;;24.17;;
62523;SDS011;53689;56.878;60.672;2023-02-28T06:28:15;58.85;;;22.73;;
62523;SDS011;53689;56.878;60.672;2023-02-28T06:30:43;53.63;;;22.75;;
62523;SDS011;53689;56.878;60.672;2023-02-28T06:33:12;58.40;;;22.70;;
62523;SDS011;53689;56.878;60.672;2023-02-28T06:35:39;56.78;;;26.08;;
62523;SDS011;53689;56.878;60.672;2023-02-28T06:38:11;57.00;;;29.23;;
62523;SDS011;53689;56.878;60.672;2023-02-28T06:40:39;53.70;;;26.65;;
62523;SDS011;53689;56.878;60.672;2023-02-28T06:43:07;53.60;;;25.80;;
62523;SDS011;53689;56.878;60.672;2023-02-28T06:45:35;62.63;;;25.60;;
62523;SDS011;53689;56.878;60.672;2023-02-28T06:48:02;52.28;;;25.67;;
62523;SDS011;53689;56.878;60.672;2023-02-28T06:50:30;48.78;;;23.55;;
62523;SDS011;53689;56.878;60.672;2023-02-28T06:52:58;47.42;;;24.42;;
62523;SDS011;53689;56.878;60.672;2023-02-28T06:55:27;51.25;;;22.08;;
62523;SDS011;53689;56.878;60.672;2023-02-28T06:57:56;45.10;;;22.73;;
62523;SDS011;53689;56.878;60.672;2023-02-28T07:00:24;45.30;;;22.23;;
62523;SDS011;53689;56.878;60.672;2023-02-28T07:02:52;52.65;;;22.33;;
62523;SDS011;53689;56.878;60.672;2023-02-28T07:05:20;49.22;;;20.85;;
62523;SDS011;53689;56.878;60.672;2023-02-28T07:07:47;54.67;;;22.85;;
62523;SDS011;53689;56.878;60.672;2023-02-28T07:10:15;40.30;;;20.00;;
62523;SDS011;53689;56.878;60.672;2023-02-28T07:12:47;45.10;;;21.58;;
62523;SDS011;53689;56.878;60.672;2023-02-28T07:15:15;52.90;;;21.67;;
62523;SDS011;53689;56.878;60.672;2023-02-28T07:17:43;33.78;;;19.48;;
62523;SDS011;53689;56.878;60.672;2023-02-28T07:20:11;36.88;;;19.15;;
62523;SDS011;53689;56.878;60.672;2023-02-28T07:22:39;37.95;;;19.40;;
62523;SDS011;53689;56.878;60.672;2023-02-28T07:25:07;37.97;;;18.38;;
62523;SDS011;53689;56.878;60.672;2023-02-28T07:27:35;48.95;;;25.77;;
62523;SDS011;53689;56.878;60.672;2023-02-28T07:30:05;44.05;;;19.20;;
62523;SDS011;53689;56.878;60.672;2023-02-28T07:32:35;40.88;;;21.95;;
62523;SDS011;53689;56.878;60.672;2023-02-28T07:35:02;31.52;;;18.70;;
62523;SDS011;53689;56.878;60.672;2023-02-28T07:37:30;35.00;;;19.60;;
62523;SDS011;53689;56.878;60.672;2023-02-28T07:39:58;40.30;;;23.75;;
62523;SDS011;53689;56.878;60.672;2023-02-28T07:42:25;46.10;;;26.90;;
62523;SDS011;53689;56.878;60.672;2023-02-28T07:44:53;47.70;;;25.30;;
62523;SDS011;53689;56.878;60.672;2023-02-28T07:47:22;43.28;;;22.45;;
62523;SDS011;53689;56.878;60.672;2023-02-28T07:49:51;43.40;;;21.45;;
62523;SDS011;53689;56.878;60.672;2023-02-28T07:52:18;34.17;;;21.25;;
62523;SDS011;53689;56.878;60.672;2023-02-28T07:54:46;39.67;;;24.10;;
62523;SDS011;53689;56.878;60.672;2023-02-28T07:57:14;36.80;;;20.20;;
62523;SDS011;53689;56.878;60.672;2023-02-28T07:59:42;36.97;;;20.02;;
62523;SDS011;53689;56.878;60.672;2023-02-28T08:02:12;33.50;;;20.42;;
62523;SDS011;53689;56.878;60.672;2023-02-28T08:04:42;35.55;;;19.90;;
62523;SDS011;53689;56.878;60.672;2023-02-28T08:07:10;42.63;;;18.70;;
62523;SDS011;53689;56.878;60.672;2023-02-28T08:09:39;30.60;;;17.50;;
62523;SDS011;53689;56.878;60.672;2023-02-28T08:12:07;33.83;;;17.10;;
62523;SDS011;53689;56.878;60.672;2023-02-28T08:14:35;31.50;;;16.13;;
62523;SDS011;53689;56.878;60.672;2023-02-28T08:17:04;29.60;;;17.65;;
62523;SDS011;53689;56.878;60.672;2023-02-28T08:19:32;28.13;;;16.88;;
62523;SDS011;53689;56.878;60.672;2023-02-28T08:22:01;40.42;;;19.17;;
62523;SDS011;53689;56.878;60.672;2023-02-28T08:24:29;26.50;;;16.27;;
62523;SDS011;53689;56.878;60.672;2023-02-28T08:26:57;28.90;;;15.10;;
62523;SDS011;53689;56.878;60.672;2023-02-28T08:29:24;24.20;;;16.15;;
62523;SDS011;53689;56.878;60.672;2023-02-28T08:31:52;25.92;;;16.00;;
62523;SDS011;53689;56.878;60.672;2023-02-28T08:34:20;32.53;;;16.95;;
62523;SDS011;53689;56.878;60.672;2023-02-28T08:36:48;31.60;;;16.27;;
62523;SDS011;53689;56.878;60.672;2023-02-28T08:39:17;32.97;;;17.42;;
62523;SDS011;53689;56.878;60.672;2023-02-28T08:41:45;28.83;;;17.55;;
62523;SDS011;53689;56.878;60.672;2023-02-28T08:44:19;28.45;;;17.30;;
62523;SDS011;53689;56.878;60.672;2023-02-28T08:46:47;41.92;;;28.08;;
62523;SDS011;53689;56.878;60.672;2023-02-28T08:49:14;58.47;;;41.83;;
62523;SDS011;53689;56.878;60.672;2023-02-28T08:51:42;55.85;;;37.72;;
62523;SDS011;53689;56.878;60.672;2023-02-28T08:54:10;54.30;;;39.47;;
62523;SDS011;53689;56.878;60.672;2023-02-28T08:56:39;27.98;;;19.02;;
62523;SDS011;53689;56.878;60.672;2023-02-28T08:59:08;28.27;;;17.92;;
62523;SDS011;53689;56.878;60.672;2023-02-28T09:01:36;28.55;;;17.77;;
62523;SDS011;53689;56.878;60.672;2023-02-28T09:04:04;27.45;;;16.60;;
62523;SDS011;53689;56.878;60.672;2023-02-28T09:06:32;28.38;;;17.42;;
62523;SDS011;53689;56.878;60.672;2023-02-28T09:09:00;30.00;;;20.00;;
62523;SDS011;53689;56.878;60.672;2023-02-28T09:11:28;28.75;;;18.08;;
62523;SDS011;53689;56.878;60.672;2023-02-28T09:13:57;29.50;;;17.92;;
62523;SDS011;53689;56.878;60.672;2023-02-28T09:18:53;41.55;;;29.55;;
62523;SDS011;53689;56.878;60.672;2023-02-28T09:21:21;34.63;;;22.27;;
62523;SDS011;53689;56.878;60.672;2023-02-28T09:23:49;30.77;;;20.17;;
62523;SDS011;53689;56.878;60.672;2023-02-28T09:26:18;35.00;;;21.58;;
62523;SDS011;53689;56.878;60.672;2023-02-28T09:28:48;29.50;;;19.00;;
62523;SDS011;53689;56.878;60.672;2023-02-28T09:31:18;33.20;;;18.60;;
62523;SDS011;53689;56.878;60.672;2023-02-28T09:33:48;32.33;;;18.15;;
62523;SDS011;53689;56.878;60.672;2023-02-28T09:36:16;27.33;;;16.55;;
62523;SDS011;53689;56.878;60.672;2023-02-28T09:38:44;32.60;;;18.08;;
62523;SDS011;53689;56.878;60.672;2023-02-28T09:41:14;28.17;;;17.40;;
62523;SDS011;53689;56.878;60.672;2023-02-28T09:43:44;29.85;;;22.02;;
62523;SDS011;53689;56.878;60.672;2023-02-28T09:46:20;32.80;;;21.08;;
62523;SDS011;53689;56.878;60.672;2023-02-28T09:49:00;34.40;;;22.33;;
62523;SDS011;53689;56.878;60.672;2023-02-28T09:51:33;41.70;;;21.52;;
62523;SDS011;53689;56.878;60.672;2023-02-28T09:54:09;40.30;;;22.20;;
62523;SDS011;53689;56.878;60.672;2023-02-28T09:56:42;28.30;;;19.02;;
62523;SDS011;53689;56.878;60.672;2023-02-28T09:59:13;35.45;;;22.30;;
62523;SDS011;53689;56.878;60.672;2023-02-28T10:01:48;34.58;;;20.83;;
62523;SDS011;53689;56.878;60.672;2023-02-28T10:04:28;23.35;;;14.18;;
62523;SDS011;53689;56.878;60.672;2023-02-28T10:07:11;22.77;;;12.48;;
62523;SDS011;53689;56.878;60.672;2023-02-28T10:09:46;21.20;;;12.63;;
62523;SDS011;53689;56.878;60.672;2023-02-28T10:12:19;20.88;;;12.18;;
62523;SDS011;53689;56.878;60.672;2023-02-28T10:14:49;25.10;;;13.50;;
62523;SDS011;53689;56.878;60.672;2023-02-28T10:17:23;21.45;;;11.55;;
62523;SDS011;53689;56.878;60.672;2023-02-28T10:19:56;18.35;;;11.90;;
62523;SDS011;53689;56.878;60.672;2023-02-28T10:22:29;21.85;;;13.85;;
62523;SDS011;53689;56.878;60.672;2023-02-28T10:25:01;23.75;;;13.60;;
62523;SDS011;53689;56.878;60.672;2023-02-28T10:27:43;28.30;;;14.20;;
62523;SDS011;53689;56.878;60.672;2023-02-28T10:30:11;31.70;;;17.92;;
62523;SDS011;53689;56.878;60.672;2023-02-28T10:32:42;34.50;;;20.73;;
62523;SDS011;53689;56.878;60.672;2023-02-28T10:35:16;33.63;;;18.27;;
62523;SDS011;53689;56.878;60.672;2023-02-28T10:37:47;24.70;;;15.48;;
62523;SDS011;53689;56.878;60.672;2023-02-28T10:40:27;29.80;;;16.15;;
62523;SDS011;53689;56.878;60.672;2023-02-28T10:42:59;29.40;;;16.48;;
62523;SDS011;53689;56.878;60.672;2023-02-28T10:45:28;25.42;;;15.82;;
62523;SDS011;53689;56.878;60.672;2023-02-28T10:47:59;20.42;;;13.55;;
62523;SDS011;53689;56.878;60.672;2023-02-28T10:50:30;19.98;;;13.43;;
62523;SDS011;53689;56.878;60.672;2023-02-28T10:53:07;21.60;;;12.05;;
62523;SDS011;53689;56.878;60.672;2023-02-28T10:55:43;21.20;;;12.65;;
62523;SDS011;53689;56.878;60.672;2023-02-28T10:58:23;17.17;;;11.30;;
62523;SDS011;53689;56.878;60.672;2023-02-28T11:00:52;18.85;;;11.70;;
62523;SDS011;53689;56.878;60.672;2023-02-28T11:03:29;21.85;;;13.75;;
62523;SDS011;53689;56.878;60.672;2023-02-28T11:05:59;21.98;;;12.48;;
62523;SDS011;53689;56.878;60.672;2023-02-28T11:08:33;21.17;;;12.20;;
62523;SDS011;53689;56.878;60.672;2023-02-28T11:11:03;18.63;;;13.60;;
62523;SDS011;53689;56.878;60.672;2023-02-28T11:13:34;20.23;;;13.25;;
62523;SDS011;53689;56.878;60.672;2023-02-28T11:16:04;22.30;;;12.98;;
62523;SDS011;53689;56.878;60.672;2023-02-28T11:18:37;23.95;;;13.85;;
62523;SDS011;53689;56.878;60.672;2023-02-28T11:21:08;24.75;;;14.07;;
62523;SDS011;53689;56.878;60.672;2023-02-28T11:23:42;28.30;;;15.80;;
62523;SDS011;53689;56.878;60.672;2023-02-28T11:26:10;20.85;;;13.10;;
62523;SDS011;53689;56.878;60.672;2023-02-28T11:28:38;29.75;;;17.42;;
62523;SDS011;53689;56.878;60.672;2023-02-28T11:31:15;30.30;;;19.88;;
62523;SDS011;53689;56.878;60.672;2023-02-28T11:33:47;36.20;;;18.83;;
62523;SDS011;53689;56.878;60.672;2023-02-28T11:36:17;23.88;;;14.55;;
62523;SDS011;53689;56.878;60.672;2023-02-28T11:38:47;21.90;;;13.35;;
62523;SDS011;53689;56.878;60.672;2023-02-28T11:41:19;24.67;;;15.30;;
62523;SDS011;53689;56.878;60.672;2023-02-28T11:44:05;23.98;;;13.90;;
62523;SDS011;53689;56.878;60.672;2023-02-28T11:46:47;21.80;;;14.88;;
62523;SDS011;53689;56.878;60.672;2023-02-28T11:49:24;22.60;;;14.55;;
62523;SDS011;53689;56.878;60.672;2023-02-28T11:51:59;20.60;;;12.97;;
62523;SDS011;53689;56.878;60.672;2023-02-28T11:54:40;21.67;;;13.07;;
62523;SDS011;53689;56.878;60.672;2023-02-28T11:57:32;24.27;;;13.45;;
62523;SDS011;53689;56.878;60.672;2023-02-28T12:02:58;23.75;;;12.30;;
62523;SDS011;53689;56.878;60.672;2023-02-28T12:05:34;16.30;;;11.40;;
62523;SDS011;53689;56.878;60.672;2023-02-28T12:08:12;20.92;;;13.35;;
62523;SDS011;53689;56.878;60.672;2023-02-28T12:10:53;20.52;;;11.98;;
62523;SDS011;53689;56.878;60.672;2023-02-28T12:13:35;19.92;;;11.48;;
62523;SDS011;53689;56.878;60.672;2023-02-28T12:16:23;20.90;;;13.10;;
62523;SDS011;53689;56.878;60.672;2023-02-28T12:19:19;16.33;;;11.75;;
62523;SDS011;53689;56.878;60.672;2023-02-28T12:21:58;21.95;;;11.98;;
62523;SDS011;53689;56.878;60.672;2023-02-28T12:24:42;17.42;;;11.50;;
62523;SDS011;53689;56.878;60.672;2023-02-28T12:27:19;18.70;;;11.15;;
62523;SDS011;53689;56.878;60.672;2023-02-28T12:29:54;21.88;;;10.80;;
62523;SDS011;53689;56.878;60.672;2023-02-28T12:32:26;18.90;;;11.38;;
62523;SDS011;53689;56.878;60.672;2023-02-28T12:34:58;20.15;;;12.15;;
62523;SDS011;53689;56.878;60.672;2023-02-28T12:37:37;24.15;;;11.80;;
62523;SDS011;53689;56.878;60.672;2023-02-28T12:40:11;18.80;;;11.30;;
62523;SDS011;53689;56.878;60.672;2023-02-28T12:42:43;19.80;;;10.38;;
62523;SDS011;53689;56.878;60.672;2023-02-28T12:45:16;20.98;;;11.13;;
62523;SDS011;53689;56.878;60.672;2023-02-28T12:47:48;16.10;;;9.88;;
62523;SDS011;53689;56.878;60.672;2023-02-28T12:50:17;15.73;;;10.15;;
62523;SDS011;53689;56.878;60.672;2023-02-28T12:52:52;20.10;;;10.90;;
62523;SDS011;53689;56.878;60.672;2023-02-28T12:55:27;16.10;;;10.57;;
62523;SDS011;53689;56.878;60.672;2023-02-28T12:58:05;22.77;;;10.93;;
62523;SDS011;53689;56.878;60.672;2023-02-28T13:00:44;18.95;;;10.90;;
62523;SDS011;53689;56.878;60.672;2023-02-28T13:03:24;21.58;;;11.02;;
62523;SDS011;53689;56.878;60.672;2023-02-28T13:09:10;22.83;;;11.73;;
62523;SDS011;53689;56.878;60.672;2023-02-28T13:14:16;18.67;;;10.63;;
62523;SDS011;53689;56.878;60.672;2023-02-28T13:17:02;17.58;;;10.07;;
62523;SDS011;53689;56.878;60.672;2023-02-28T13:19:39;16.95;;;10.25;;
62523;SDS011;53689;56.878;60.672;2023-02-28T13:22:17;18.88;;;10.95;;
62523;SDS011;53689;56.878;60.672;2023-02-28T13:24:48;19.23;;;10.25;;
62523;SDS011;53689;56.878;60.672;2023-02-28T13:33:19;20.10;;;10.88;;
62523;SDS011;53689;56.878;60.672;2023-02-28T13:36:00;20.02;;;10.50;;
62523;SDS011;53689;56.878;60.672;2023-02-28T13:38:36;18.20;;;10.57;;
62523;SDS011;53689;56.878;60.672;2023-02-28T13:44:18;17.42;;;12.80;;
62523;SDS011;53689;56.878;60.672;2023-02-28T13:49:49;32.28;;;14.18;;
62523;SDS011;53689;56.878;60.672;2023-02-28T13:54:54;22.25;;;12.73;;
62523;SDS011;53689;56.878;60.672;2023-02-28T13:57:44;18.38;;;11.35;;
62523;SDS011;53689;56.878;60.672;2023-02-28T14:00:28;19.88;;;12.38;;
62523;SDS011;53689;56.878;60.672;2023-02-28T14:03:06;16.73;;;11.20;;
62523;SDS011;53689;56.878;60.672;2023-02-28T14:05:43;21.83;;;11.82;;
62523;SDS011;53689;56.878;60.672;2023-02-28T14:08:13;15.95;;;11.80;;
62523;SDS011;53689;56.878;60.672;2023-02-28T14:10:43;18.35;;;11.55;;
62523;SDS011;53689;56.878;60.672;2023-02-28T14:13:36;18.48;;;11.23;;
62523;SDS011;53689;56.878;60.672;2023-02-28T14:16:06;19.33;;;11.95;;
62523;SDS011;53689;56.878;60.672;2023-02-28T14:18:36;16.23;;;10.48;;
62523;SDS011;53689;56.878;60.672;2023-02-28T14:21:16;18.05;;;11.43;;
62523;SDS011;53689;56.878;60.672;2023-02-28T14:24:03;22.50;;;11.48;;
62523;SDS011;53689;56.878;60.672;2023-02-28T14:30:01;39.95;;;17.20;;
62523;SDS011;53689;56.878;60.672;2023-02-28T14:32:43;24.80;;;15.75;;
62523;SDS011;53689;56.878;60.672;2023-02-28T14:35:19;25.50;;;13.70;;
62523;SDS011;53689;56.878;60.672;2023-02-28T14:37:58;24.75;;;12.35;;
62523;SDS011;53689;56.878;60.672;2023-02-28T14:40:27;27.23;;;12.43;;
62523;SDS011;53689;56.878;60.672;2023-02-28T14:42:58;25.08;;;11.77;;
62523;SDS011;53689;56.878;60.672;2023-02-28T14:45:27;23.42;;;11.45;;
62523;SDS011;53689;56.878;60.672;2023-02-28T14:47:59;20.50;;;11.55;;
62523;SDS011;53689;56.878;60.672;2023-02-28T14:50:29;25.05;;;10.88;;
62523;SDS011;53689;56.878;60.672;2023-02-28T14:52:58;16.80;;;11.35;;
62523;SDS011;53689;56.878;60.672;2023-02-28T14:55:28;21.67;;;11.27;;
62523;SDS011;53689;56.878;60.672;2023-02-28T14:57:58;19.67;;;10.70;;
62523;SDS011;53689;56.878;60.672;2023-02-28T15:00:28;21.38;;;12.38;;
62523;SDS011;53689;56.878;60.672;2023-02-28T15:05:28;24.42;;;12.10;;
62523;SDS011;53689;56.878;60.672;2023-02-28T15:08:11;21.83;;;11.40;;
62523;SDS011;53689;56.878;60.672;2023-02-28T15:10:40;17.13;;;11.57;;
62523;SDS011;53689;56.878;60.672;2023-02-28T15:13:11;22.50;;;11.70;;
62523;SDS011;53689;56.878;60.672;2023-02-28T15:15:45;20.55;;;10.25;;
62523;SDS011;53689;56.878;60.672;2023-02-28T15:18:31;22.75;;;11.63;;
62523;SDS011;53689;56.878;60.672;2023-02-28T15:21:07;16.85;;;9.75;;
62523;SDS011;53689;56.878;60.672;2023-02-28T15:23:42;19.48;;;11.35;;
62523;SDS011;53689;56.878;60.672;2023-02-28T15:26:14;19.88;;;11.45;;
62523;SDS011;53689;56.878;60.672;2023-02-28T15:28:44;17.42;;;11.57;;
62523;SDS011;53689;56.878;60.672;2023-02-28T15:31:19;18.25;;;11.75;;
62523;SDS011;53689;56.878;60.672;2023-02-28T15:33:56;19.13;;;11.13;;